SFR200 FAOR-FAPE
Flight info
| Callsign | SFR200 |
|---|---|
| Flight time | 1h 24m |
| Altitude | 34000 |
| Route | OVALA UZ18 NEVEN UQ8 ALKAT DCT PEV |
| Aircraft | B738/M-SDE2E3FGHIRWXY/LB1 |
Departure
| Time | 2026-04-24 08:32 |
|---|---|
| Airport | O.R. Tambo International Airport (FAOR) |
Arrival
| Time | 2026-04-24 09:57 |
|---|---|
| Airport | Chief Dawid Stuurman International Airport (FAPE) |
| Time | Latitude | Longitude | Altitude | Speed | Heading |
|---|---|---|---|---|---|
| 2026-04-24 07:47 | -26.13685 | 28.23107 | 5546 ft | 0 kts | 6° |
| 2026-04-24 08:20 | -26.13693 | 28.23106 | 5546 ft | 3 kts | 6° |
| 2026-04-24 08:20 | -26.13716 | 28.23103 | 5548 ft | 2 kts | 6° |
| 2026-04-24 08:20 | -26.13735 | 28.23100 | 5547 ft | 3 kts | 34° |
| 2026-04-24 08:21 | -26.13743 | 28.23084 | 5549 ft | 3 kts | 95° |
| 2026-04-24 08:21 | -26.13741 | 28.23060 | 5550 ft | 2 kts | 96° |
| 2026-04-24 08:21 | -26.13741 | 28.23058 | 5550 ft | 0 kts | 96° |
| 2026-04-24 08:24 | -26.13741 | 28.23062 | 5546 ft | 2 kts | 96° |
| 2026-04-24 08:25 | -26.13745 | 28.23102 | 5547 ft | 6 kts | 96° |
| 2026-04-24 08:25 | -26.13749 | 28.23145 | 5548 ft | 6 kts | 96° |
| 2026-04-24 08:25 | -26.13753 | 28.23190 | 5546 ft | 6 kts | 96° |
| 2026-04-24 08:25 | -26.13756 | 28.23226 | 5550 ft | 6 kts | 96° |
| 2026-04-24 08:26 | -26.13760 | 28.23270 | 5546 ft | 6 kts | 96° |
| 2026-04-24 08:26 | -26.13769 | 28.23311 | 5546 ft | 6 kts | 117° |
| 2026-04-24 08:26 | -26.13801 | 28.23328 | 5547 ft | 5 kts | 185° |
| 2026-04-24 08:26 | -26.13839 | 28.23325 | 5550 ft | 5 kts | 176° |
| 2026-04-24 08:27 | -26.13863 | 28.23352 | 5548 ft | 5 kts | 105° |
| 2026-04-24 08:27 | -26.13868 | 28.23393 | 5547 ft | 5 kts | 99° |
| 2026-04-24 08:27 | -26.13875 | 28.23432 | 5553 ft | 5 kts | 105° |
| 2026-04-24 08:27 | -26.13885 | 28.23470 | 5556 ft | 5 kts | 106° |
| 2026-04-24 08:28 | -26.13894 | 28.23504 | 5556 ft | 1 kts | 107° |
| 2026-04-24 08:30 | -26.13898 | 28.23519 | 5557 ft | 4 kts | 107° |
| 2026-04-24 08:30 | -26.13910 | 28.23562 | 5559 ft | 6 kts | 107° |
| 2026-04-24 08:31 | -26.13924 | 28.23615 | 5558 ft | 9 kts | 107° |
| 2026-04-24 08:31 | -26.13911 | 28.23670 | 5558 ft | 8 kts | 20° |
| 2026-04-24 08:31 | -26.13849 | 28.23685 | 5559 ft | 12 kts | 13° |
| 2026-04-24 08:31 | -26.13581 | 28.23765 | 5552 ft | 74 kts | 16° |
| 2026-04-24 08:32 | -26.12872 | 28.23985 | 5544 ft | 134 kts | 16° |
| 2026-04-24 08:32 | -26.11836 | 28.24332 | 5727 ft | 167 kts | 19° |
| 2026-04-24 08:32 | -26.10704 | 28.24709 | 6471 ft | 171 kts | 15° |
| 2026-04-24 08:32 | -26.09564 | 28.25044 | 7244 ft | 171 kts | 14° |
| 2026-04-24 08:33 | -26.08496 | 28.25346 | 7944 ft | 171 kts | 14° |
| 2026-04-24 08:33 | -26.07330 | 28.25700 | 8555 ft | 176 kts | 15° |
| 2026-04-24 08:33 | -26.06153 | 28.26087 | 9206 ft | 180 kts | 15° |
| 2026-04-24 08:33 | -26.04929 | 28.26484 | 9506 ft | 186 kts | 13° |
| 2026-04-24 08:34 | -26.03841 | 28.27218 | 10173 ft | 190 kts | 51° |
| 2026-04-24 08:34 | -26.03378 | 28.28627 | 10704 ft | 206 kts | 84° |
| 2026-04-24 08:34 | -26.03665 | 28.30270 | 10875 ft | 232 kts | 116° |
| 2026-04-24 08:34 | -26.04812 | 28.31626 | 11036 ft | 255 kts | 150° |
| 2026-04-24 08:35 | -26.06503 | 28.32438 | 11217 ft | 276 kts | 160° |
| 2026-04-24 08:35 | -26.08406 | 28.33178 | 11377 ft | 303 kts | 162° |
| 2026-04-24 08:35 | -26.10448 | 28.33951 | 11622 ft | 324 kts | 162° |
| 2026-04-24 08:35 | -26.12615 | 28.34780 | 12179 ft | 336 kts | 161° |
| 2026-04-24 08:36 | -26.14856 | 28.35652 | 12801 ft | 345 kts | 161° |
| 2026-04-24 08:36 | -26.17185 | 28.36285 | 13595 ft | 345 kts | 176° |
| 2026-04-24 08:36 | -26.19596 | 28.36313 | 14253 ft | 352 kts | 188° |
| 2026-04-24 08:36 | -26.22046 | 28.35841 | 14763 ft | 360 kts | 193° |
| 2026-04-24 08:37 | -26.24515 | 28.35240 | 15381 ft | 366 kts | 195° |
| 2026-04-24 08:37 | -26.27008 | 28.34602 | 16064 ft | 369 kts | 195° |
| 2026-04-24 08:37 | -26.29511 | 28.33961 | 16726 ft | 372 kts | 195° |
| 2026-04-24 08:37 | -26.32057 | 28.33317 | 17370 ft | 377 kts | 195° |
| 2026-04-24 08:38 | -26.34612 | 28.32680 | 17997 ft | 381 kts | 195° |
| 2026-04-24 08:38 | -26.37237 | 28.32033 | 18611 ft | 385 kts | 195° |
| 2026-04-24 08:38 | -26.39869 | 28.31391 | 19152 ft | 389 kts | 195° |
| 2026-04-24 08:38 | -26.42520 | 28.30747 | 19707 ft | 392 kts | 195° |
| 2026-04-24 08:39 | -26.45199 | 28.30097 | 20248 ft | 395 kts | 195° |
| 2026-04-24 08:39 | -26.47861 | 28.29453 | 20805 ft | 399 kts | 196° |
| 2026-04-24 08:39 | -26.50624 | 28.28784 | 21373 ft | 402 kts | 196° |
| 2026-04-24 08:39 | -26.53369 | 28.28119 | 21920 ft | 406 kts | 196° |
| 2026-04-24 08:40 | -26.56140 | 28.27447 | 22445 ft | 409 kts | 196° |
| 2026-04-24 08:40 | -26.58922 | 28.26773 | 22920 ft | 413 kts | 196° |
| 2026-04-24 08:40 | -26.61720 | 28.26094 | 23433 ft | 416 kts | 196° |
| 2026-04-24 08:40 | -26.64557 | 28.25405 | 23946 ft | 420 kts | 196° |
| 2026-04-24 08:41 | -26.67461 | 28.24700 | 24379 ft | 423 kts | 197° |
| 2026-04-24 08:41 | -26.70348 | 28.23999 | 24825 ft | 425 kts | 196° |
| 2026-04-24 08:41 | -26.73241 | 28.23297 | 25250 ft | 427 kts | 197° |
| 2026-04-24 08:41 | -26.76153 | 28.22589 | 25672 ft | 429 kts | 197° |
| 2026-04-24 08:42 | -26.79038 | 28.21887 | 26069 ft | 431 kts | 197° |
| 2026-04-24 08:42 | -26.82028 | 28.21159 | 26477 ft | 434 kts | 197° |
| 2026-04-24 08:42 | -26.84980 | 28.20440 | 26859 ft | 436 kts | 197° |
| 2026-04-24 08:42 | -26.87957 | 28.19714 | 27249 ft | 439 kts | 197° |
| 2026-04-24 08:43 | -26.90941 | 28.18986 | 27626 ft | 441 kts | 197° |
| 2026-04-24 08:43 | -26.93950 | 28.18252 | 27995 ft | 443 kts | 197° |
| 2026-04-24 08:43 | -26.96967 | 28.17516 | 28354 ft | 446 kts | 197° |
| 2026-04-24 08:43 | -26.98989 | 28.17022 | 28598 ft | 447 kts | 197° |
| 2026-04-24 08:44 | -27.02112 | 28.16258 | 28946 ft | 450 kts | 197° |
| 2026-04-24 08:44 | -27.06220 | 28.15254 | 29419 ft | 452 kts | 197° |
| 2026-04-24 08:44 | -27.09256 | 28.14512 | 29844 ft | 452 kts | 197° |
| 2026-04-24 08:44 | -27.12322 | 28.13763 | 30404 ft | 449 kts | 197° |
| 2026-04-24 08:45 | -27.15365 | 28.13019 | 30858 ft | 447 kts | 197° |
| 2026-04-24 08:45 | -27.18405 | 28.12275 | 31234 ft | 447 kts | 197° |
| 2026-04-24 08:45 | -27.21440 | 28.11530 | 31576 ft | 447 kts | 197° |
| 2026-04-24 08:45 | -27.24480 | 28.10783 | 31953 ft | 446 kts | 197° |
| 2026-04-24 08:46 | -27.27508 | 28.10040 | 32356 ft | 445 kts | 197° |
| 2026-04-24 08:46 | -27.30533 | 28.09297 | 32730 ft | 444 kts | 198° |
| 2026-04-24 08:46 | -27.32576 | 28.08795 | 32960 ft | 444 kts | 198° |
| 2026-04-24 08:46 | -27.35592 | 28.08053 | 33304 ft | 444 kts | 198° |
| 2026-04-24 08:47 | -27.38609 | 28.07310 | 33654 ft | 443 kts | 198° |
| 2026-04-24 08:47 | -27.41578 | 28.06579 | 34006 ft | 443 kts | 198° |
| 2026-04-24 08:47 | -27.44633 | 28.05827 | 34343 ft | 443 kts | 198° |
| 2026-04-24 08:48 | -27.50608 | 28.04221 | 34352 ft | 442 kts | 202° |
| 2026-04-24 08:48 | -27.56437 | 28.02168 | 34348 ft | 437 kts | 204° |
| 2026-04-24 08:49 | -27.62255 | 28.00038 | 34351 ft | 436 kts | 204° |
| 2026-04-24 08:49 | -27.68038 | 27.97964 | 34355 ft | 436 kts | 203° |
| 2026-04-24 08:50 | -27.73821 | 27.95916 | 34358 ft | 436 kts | 203° |
| 2026-04-24 08:50 | -27.79617 | 27.93866 | 34356 ft | 437 kts | 204° |
| 2026-04-24 08:51 | -27.85427 | 27.91807 | 34348 ft | 438 kts | 204° |
| 2026-04-24 08:51 | -27.91263 | 27.89737 | 34355 ft | 439 kts | 204° |
| 2026-04-24 08:52 | -27.97081 | 27.87670 | 34348 ft | 440 kts | 204° |
| 2026-04-24 08:52 | -28.02922 | 27.85570 | 34358 ft | 441 kts | 204° |
| 2026-04-24 08:53 | -28.08768 | 27.83410 | 34345 ft | 442 kts | 204° |
| 2026-04-24 08:53 | -28.14621 | 27.81242 | 34347 ft | 442 kts | 204° |
| 2026-04-24 08:54 | -28.20462 | 27.79084 | 34348 ft | 441 kts | 204° |
| 2026-04-24 08:54 | -28.26292 | 27.76929 | 34346 ft | 441 kts | 204° |
| 2026-04-24 08:55 | -28.32124 | 27.74772 | 34353 ft | 440 kts | 204° |
| 2026-04-24 08:55 | -28.37940 | 27.72617 | 34352 ft | 440 kts | 204° |
| 2026-04-24 08:56 | -28.43763 | 27.70456 | 34346 ft | 439 kts | 204° |
| 2026-04-24 08:56 | -28.49561 | 27.68304 | 34347 ft | 438 kts | 204° |
| 2026-04-24 08:57 | -28.55352 | 27.66152 | 34347 ft | 438 kts | 204° |
| 2026-04-24 08:57 | -28.61142 | 27.63999 | 34345 ft | 437 kts | 204° |
| 2026-04-24 08:58 | -28.66925 | 27.61845 | 34342 ft | 437 kts | 204° |
| 2026-04-24 08:58 | -28.72658 | 27.59707 | 34339 ft | 437 kts | 204° |
| 2026-04-24 08:59 | -28.78436 | 27.57550 | 34334 ft | 437 kts | 204° |
| 2026-04-24 08:59 | -28.84213 | 27.55390 | 34337 ft | 437 kts | 204° |
| 2026-04-24 09:00 | -28.89995 | 27.53226 | 34319 ft | 437 kts | 204° |
| 2026-04-24 09:00 | -28.95773 | 27.51061 | 34321 ft | 437 kts | 204° |
| 2026-04-24 09:01 | -29.01552 | 27.48893 | 34322 ft | 437 kts | 204° |
| 2026-04-24 09:01 | -29.07322 | 27.46726 | 34320 ft | 437 kts | 204° |
| 2026-04-24 09:02 | -29.13105 | 27.44551 | 34319 ft | 437 kts | 204° |
| 2026-04-24 09:02 | -29.18872 | 27.42381 | 34323 ft | 437 kts | 204° |
| 2026-04-24 09:03 | -29.24646 | 27.40204 | 34327 ft | 437 kts | 204° |
| 2026-04-24 09:03 | -29.30797 | 27.37883 | 34316 ft | 437 kts | 204° |
| 2026-04-24 09:04 | -29.36596 | 27.35692 | 34317 ft | 437 kts | 204° |
| 2026-04-24 09:04 | -29.42371 | 27.33507 | 34314 ft | 437 kts | 204° |
| 2026-04-24 09:05 | -29.48131 | 27.31326 | 34313 ft | 437 kts | 204° |
| 2026-04-24 09:05 | -29.53875 | 27.29148 | 34320 ft | 436 kts | 204° |
| 2026-04-24 09:06 | -29.59713 | 27.26931 | 34323 ft | 436 kts | 204° |
| 2026-04-24 09:06 | -29.65483 | 27.24738 | 34319 ft | 437 kts | 204° |
| 2026-04-24 09:07 | -29.71214 | 27.22557 | 34313 ft | 437 kts | 204° |
| 2026-04-24 09:07 | -29.79875 | 27.19255 | 34311 ft | 437 kts | 204° |
| 2026-04-24 09:08 | -29.84764 | 27.17389 | 34306 ft | 437 kts | 204° |
| 2026-04-24 09:08 | -29.90506 | 27.15195 | 34304 ft | 438 kts | 204° |
| 2026-04-24 09:09 | -29.96327 | 27.12968 | 34304 ft | 438 kts | 204° |
| 2026-04-24 09:09 | -30.02096 | 27.10758 | 34306 ft | 437 kts | 204° |
| 2026-04-24 09:10 | -30.07871 | 27.08543 | 34304 ft | 438 kts | 204° |
| 2026-04-24 09:10 | -30.13659 | 27.06320 | 34297 ft | 438 kts | 204° |
| 2026-04-24 09:11 | -30.19586 | 27.04042 | 34301 ft | 438 kts | 204° |
| 2026-04-24 09:11 | -30.25368 | 27.01816 | 34298 ft | 438 kts | 204° |
| 2026-04-24 09:12 | -30.31194 | 26.99570 | 34292 ft | 438 kts | 204° |
| 2026-04-24 09:12 | -30.36988 | 26.97334 | 34284 ft | 439 kts | 204° |
| 2026-04-24 09:13 | -30.42779 | 26.95096 | 34304 ft | 438 kts | 204° |
| 2026-04-24 09:13 | -30.48574 | 26.92854 | 34305 ft | 439 kts | 204° |
| 2026-04-24 09:14 | -30.54405 | 26.90595 | 34281 ft | 439 kts | 204° |
| 2026-04-24 09:14 | -30.60197 | 26.88348 | 34289 ft | 438 kts | 204° |
| 2026-04-24 09:15 | -30.65982 | 26.86101 | 34290 ft | 439 kts | 204° |
| 2026-04-24 09:15 | -30.71944 | 26.83781 | 34288 ft | 439 kts | 204° |
| 2026-04-24 09:16 | -30.77744 | 26.81524 | 34284 ft | 438 kts | 204° |
| 2026-04-24 09:16 | -30.83515 | 26.79276 | 34290 ft | 437 kts | 203° |
| 2026-04-24 09:17 | -30.89279 | 26.77028 | 34297 ft | 436 kts | 203° |
| 2026-04-24 09:17 | -30.95035 | 26.74779 | 34283 ft | 436 kts | 203° |
| 2026-04-24 09:18 | -31.00780 | 26.72532 | 34289 ft | 435 kts | 203° |
| 2026-04-24 09:18 | -31.06528 | 26.70280 | 34286 ft | 435 kts | 203° |
| 2026-04-24 09:19 | -31.12260 | 26.68032 | 34293 ft | 435 kts | 203° |
| 2026-04-24 09:19 | -31.17959 | 26.65794 | 34279 ft | 435 kts | 203° |
| 2026-04-24 09:20 | -31.23687 | 26.63542 | 34284 ft | 434 kts | 203° |
| 2026-04-24 09:20 | -31.29410 | 26.61289 | 34274 ft | 434 kts | 203° |
| 2026-04-24 09:21 | -31.35126 | 26.59035 | 34269 ft | 434 kts | 203° |
| 2026-04-24 09:21 | -31.40848 | 26.56777 | 34262 ft | 434 kts | 203° |
| 2026-04-24 09:22 | -31.46573 | 26.54514 | 34256 ft | 435 kts | 203° |
| 2026-04-24 09:22 | -31.52272 | 26.52258 | 34244 ft | 435 kts | 203° |
| 2026-04-24 09:23 | -31.58037 | 26.49974 | 34243 ft | 435 kts | 203° |
| 2026-04-24 09:23 | -31.63784 | 26.47692 | 34229 ft | 435 kts | 203° |
| 2026-04-24 09:24 | -31.69517 | 26.45412 | 34228 ft | 435 kts | 203° |
| 2026-04-24 09:24 | -31.75288 | 26.43113 | 34219 ft | 435 kts | 203° |
| 2026-04-24 09:25 | -31.81014 | 26.40830 | 34214 ft | 435 kts | 203° |
| 2026-04-24 09:25 | -31.86691 | 26.38564 | 34201 ft | 429 kts | 203° |
| 2026-04-24 09:26 | -31.92294 | 26.36324 | 33958 ft | 425 kts | 203° |
| 2026-04-24 09:26 | -31.94978 | 26.35249 | 33699 ft | 422 kts | 203° |
| 2026-04-24 09:26 | -31.97752 | 26.34139 | 33433 ft | 419 kts | 203° |
| 2026-04-24 09:27 | -32.00504 | 26.33038 | 33178 ft | 417 kts | 203° |
| 2026-04-24 09:27 | -32.03246 | 26.31940 | 32919 ft | 415 kts | 203° |
| 2026-04-24 09:27 | -32.05052 | 26.31216 | 32745 ft | 414 kts | 203° |
| 2026-04-24 09:27 | -32.07764 | 26.30129 | 32457 ft | 409 kts | 203° |
| 2026-04-24 09:28 | -32.10451 | 26.29051 | 32103 ft | 405 kts | 203° |
| 2026-04-24 09:28 | -32.13116 | 26.27982 | 31734 ft | 403 kts | 203° |
| 2026-04-24 09:28 | -32.15761 | 26.26918 | 31373 ft | 400 kts | 203° |
| 2026-04-24 09:28 | -32.19230 | 26.25522 | 30881 ft | 397 kts | 203° |
| 2026-04-24 09:29 | -32.21843 | 26.24470 | 30518 ft | 395 kts | 203° |
| 2026-04-24 09:29 | -32.23595 | 26.23764 | 30262 ft | 394 kts | 203° |
| 2026-04-24 09:29 | -32.26189 | 26.22719 | 29837 ft | 392 kts | 203° |
| 2026-04-24 09:29 | -32.28756 | 26.21684 | 29414 ft | 389 kts | 203° |
| 2026-04-24 09:30 | -32.31315 | 26.20651 | 29040 ft | 385 kts | 203° |
| 2026-04-24 09:30 | -32.34696 | 26.19286 | 28515 ft | 382 kts | 203° |
| 2026-04-24 09:30 | -32.36375 | 26.18608 | 28256 ft | 380 kts | 203° |
| 2026-04-24 09:30 | -32.38868 | 26.17601 | 27894 ft | 377 kts | 203° |
| 2026-04-24 09:31 | -32.41345 | 26.16600 | 27521 ft | 375 kts | 203° |
| 2026-04-24 09:31 | -32.43804 | 26.15605 | 27152 ft | 373 kts | 203° |
| 2026-04-24 09:31 | -32.46254 | 26.14615 | 26785 ft | 371 kts | 203° |
| 2026-04-24 09:31 | -32.48657 | 26.13643 | 26427 ft | 369 kts | 203° |
| 2026-04-24 09:32 | -32.51110 | 26.12649 | 26044 ft | 368 kts | 203° |
| 2026-04-24 09:32 | -32.53493 | 26.11683 | 25690 ft | 366 kts | 203° |
| 2026-04-24 09:32 | -32.55935 | 26.10692 | 25326 ft | 365 kts | 202° |
| 2026-04-24 09:32 | -32.58330 | 26.09720 | 24974 ft | 363 kts | 203° |
| 2026-04-24 09:33 | -32.60722 | 26.08749 | 24609 ft | 362 kts | 202° |
| 2026-04-24 09:33 | -32.63099 | 26.07783 | 24251 ft | 362 kts | 202° |
| 2026-04-24 09:33 | -32.65484 | 26.06813 | 23865 ft | 361 kts | 202° |
| 2026-04-24 09:33 | -32.67860 | 26.05846 | 23486 ft | 360 kts | 202° |
| 2026-04-24 09:34 | -32.70221 | 26.04885 | 23082 ft | 359 kts | 202° |
| 2026-04-24 09:34 | -32.72581 | 26.03924 | 22708 ft | 357 kts | 202° |
| 2026-04-24 09:34 | -32.74917 | 26.02973 | 22342 ft | 355 kts | 202° |
| 2026-04-24 09:34 | -32.77251 | 26.02021 | 21986 ft | 353 kts | 202° |
| 2026-04-24 09:35 | -32.79559 | 26.01080 | 21626 ft | 351 kts | 202° |
| 2026-04-24 09:35 | -32.81788 | 26.00170 | 21302 ft | 349 kts | 202° |
| 2026-04-24 09:35 | -32.84159 | 25.99203 | 20931 ft | 347 kts | 202° |
| 2026-04-24 09:35 | -32.86435 | 25.98275 | 20587 ft | 345 kts | 202° |
| 2026-04-24 09:36 | -32.88701 | 25.97351 | 20252 ft | 344 kts | 202° |
| 2026-04-24 09:36 | -32.90968 | 25.96426 | 19897 ft | 343 kts | 202° |
| 2026-04-24 09:36 | -32.93223 | 25.95505 | 19557 ft | 342 kts | 202° |
| 2026-04-24 09:36 | -32.95470 | 25.94587 | 19214 ft | 341 kts | 202° |
| 2026-04-24 09:37 | -32.97705 | 25.93673 | 18879 ft | 339 kts | 202° |
| 2026-04-24 09:37 | -32.99939 | 25.92759 | 18530 ft | 340 kts | 202° |
| 2026-04-24 09:37 | -33.02175 | 25.91843 | 18147 ft | 339 kts | 202° |
| 2026-04-24 09:37 | -33.04398 | 25.90933 | 17779 ft | 338 kts | 202° |
| 2026-04-24 09:38 | -33.06399 | 25.90113 | 17460 ft | 337 kts | 201° |
| 2026-04-24 09:38 | -33.08611 | 25.89206 | 17109 ft | 335 kts | 201° |
| 2026-04-24 09:38 | -33.10784 | 25.88315 | 16773 ft | 333 kts | 201° |
| 2026-04-24 09:38 | -33.12958 | 25.87423 | 16427 ft | 332 kts | 201° |
| 2026-04-24 09:39 | -33.15144 | 25.86525 | 16099 ft | 330 kts | 201° |
| 2026-04-24 09:39 | -33.17304 | 25.85638 | 15768 ft | 328 kts | 201° |
| 2026-04-24 09:39 | -33.19461 | 25.84749 | 15427 ft | 327 kts | 201° |
| 2026-04-24 09:39 | -33.21610 | 25.83862 | 15101 ft | 326 kts | 201° |
| 2026-04-24 09:40 | -33.23744 | 25.82977 | 14824 ft | 323 kts | 201° |
| 2026-04-24 09:40 | -33.25519 | 25.82243 | 14598 ft | 321 kts | 201° |
| 2026-04-24 09:40 | -33.27557 | 25.81213 | 14320 ft | 316 kts | 209° |
| 2026-04-24 09:40 | -33.29496 | 25.79986 | 14035 ft | 314 kts | 211° |
| 2026-04-24 09:41 | -33.31409 | 25.78732 | 13724 ft | 313 kts | 211° |
| 2026-04-24 09:41 | -33.33304 | 25.77476 | 13469 ft | 311 kts | 211° |
| 2026-04-24 09:41 | -33.35194 | 25.76218 | 13208 ft | 311 kts | 211° |
| 2026-04-24 09:41 | -33.37072 | 25.74963 | 12995 ft | 306 kts | 211° |
| 2026-04-24 09:42 | -33.38921 | 25.73727 | 12722 ft | 303 kts | 211° |
| 2026-04-24 09:42 | -33.40748 | 25.72504 | 12426 ft | 301 kts | 211° |
| 2026-04-24 09:42 | -33.42571 | 25.71282 | 12118 ft | 300 kts | 211° |
| 2026-04-24 09:42 | -33.44408 | 25.70045 | 11572 ft | 307 kts | 211° |
| 2026-04-24 09:43 | -33.46290 | 25.68770 | 11170 ft | 310 kts | 211° |
| 2026-04-24 09:43 | -33.48157 | 25.67500 | 10911 ft | 308 kts | 211° |
| 2026-04-24 09:43 | -33.49988 | 25.66253 | 10614 ft | 306 kts | 211° |
| 2026-04-24 09:43 | -33.51836 | 25.64988 | 10323 ft | 306 kts | 211° |
| 2026-04-24 09:44 | -33.53682 | 25.63721 | 10064 ft | 305 kts | 211° |
| 2026-04-24 09:44 | -33.55514 | 25.62460 | 9782 ft | 303 kts | 211° |
| 2026-04-24 09:44 | -33.57284 | 25.61240 | 9494 ft | 302 kts | 211° |
| 2026-04-24 09:44 | -33.59151 | 25.59953 | 9201 ft | 300 kts | 211° |
| 2026-04-24 09:45 | -33.60961 | 25.58707 | 8881 ft | 299 kts | 211° |
| 2026-04-24 09:45 | -33.62756 | 25.57477 | 8638 ft | 296 kts | 211° |
| 2026-04-24 09:45 | -33.64541 | 25.56259 | 8371 ft | 295 kts | 211° |
| 2026-04-24 09:45 | -33.66323 | 25.55048 | 8085 ft | 294 kts | 211° |
| 2026-04-24 09:46 | -33.67932 | 25.53958 | 7875 ft | 292 kts | 211° |
| 2026-04-24 09:46 | -33.69706 | 25.52757 | 7560 ft | 291 kts | 211° |
| 2026-04-24 09:46 | -33.71484 | 25.51552 | 7312 ft | 289 kts | 211° |
| 2026-04-24 09:46 | -33.73112 | 25.50212 | 7020 ft | 285 kts | 227° |
| 2026-04-24 09:47 | -33.74454 | 25.48459 | 6822 ft | 281 kts | 230° |
| 2026-04-24 09:47 | -33.75772 | 25.46720 | 6564 ft | 281 kts | 230° |
| 2026-04-24 09:47 | -33.77083 | 25.44987 | 6275 ft | 279 kts | 230° |
| 2026-04-24 09:47 | -33.78389 | 25.43262 | 5963 ft | 279 kts | 230° |
| 2026-04-24 09:48 | -33.79695 | 25.41546 | 5712 ft | 277 kts | 230° |
| 2026-04-24 09:48 | -33.80992 | 25.39849 | 5434 ft | 276 kts | 230° |
| 2026-04-24 09:48 | -33.82304 | 25.38150 | 5070 ft | 279 kts | 230° |
| 2026-04-24 09:48 | -33.83634 | 25.36453 | 4706 ft | 280 kts | 230° |
| 2026-04-24 09:49 | -33.84960 | 25.34775 | 4344 ft | 278 kts | 230° |
| 2026-04-24 09:49 | -33.86297 | 25.33092 | 4013 ft | 279 kts | 230° |
| 2026-04-24 09:49 | -33.87940 | 25.31787 | 3679 ft | 291 kts | 198° |
| 2026-04-24 09:49 | -33.89917 | 25.31733 | 3609 ft | 285 kts | 166° |
| 2026-04-24 09:50 | -33.91752 | 25.32496 | 3602 ft | 274 kts | 161° |
| 2026-04-24 09:50 | -33.93505 | 25.33265 | 3598 ft | 262 kts | 161° |
| 2026-04-24 09:50 | -33.95162 | 25.34022 | 3510 ft | 248 kts | 160° |
| 2026-04-24 09:50 | -33.96730 | 25.34740 | 3466 ft | 232 kts | 160° |
| 2026-04-24 09:51 | -33.98195 | 25.35419 | 3377 ft | 221 kts | 160° |
| 2026-04-24 09:51 | -33.99589 | 25.36077 | 3274 ft | 210 kts | 159° |
| 2026-04-24 09:51 | -34.00914 | 25.36721 | 3155 ft | 202 kts | 160° |
| 2026-04-24 09:51 | -34.02221 | 25.37338 | 2970 ft | 201 kts | 160° |
| 2026-04-24 09:52 | -34.03391 | 25.38208 | 2647 ft | 199 kts | 123° |
| 2026-04-24 09:52 | -34.03898 | 25.39715 | 2574 ft | 196 kts | 99° |
| 2026-04-24 09:52 | -34.04237 | 25.41326 | 2546 ft | 199 kts | 99° |
| 2026-04-24 09:52 | -34.04577 | 25.42916 | 2481 ft | 193 kts | 100° |
| 2026-04-24 09:53 | -34.04909 | 25.44454 | 2488 ft | 187 kts | 100° |
| 2026-04-24 09:53 | -34.05238 | 25.45975 | 2508 ft | 189 kts | 99° |
| 2026-04-24 09:53 | -34.05370 | 25.47515 | 2470 ft | 181 kts | 71° |
| 2026-04-24 09:53 | -34.04915 | 25.48897 | 2316 ft | 176 kts | 58° |
| 2026-04-24 09:54 | -34.04395 | 25.50191 | 2099 ft | 167 kts | 57° |
| 2026-04-24 09:54 | -34.03858 | 25.51330 | 1930 ft | 145 kts | 53° |
| 2026-04-24 09:54 | -34.03326 | 25.52372 | 1831 ft | 147 kts | 53° |
| 2026-04-24 09:54 | -34.02772 | 25.53409 | 1536 ft | 144 kts | 53° |
| 2026-04-24 09:55 | -34.02269 | 25.54402 | 1307 ft | 134 kts | 55° |
| 2026-04-24 09:55 | -34.01790 | 25.55347 | 1157 ft | 126 kts | 53° |
| 2026-04-24 09:55 | -34.01297 | 25.56273 | 1031 ft | 137 kts | 55° |
| 2026-04-24 09:55 | -34.00808 | 25.57255 | 807 ft | 133 kts | 56° |
| 2026-04-24 09:56 | -34.00317 | 25.58196 | 653 ft | 134 kts | 55° |
| 2026-04-24 09:56 | -33.99815 | 25.59164 | 454 ft | 136 kts | 57° |
| 2026-04-24 09:56 | -33.99322 | 25.60127 | 246 ft | 133 kts | 56° |
| 2026-04-24 09:56 | -33.98877 | 25.60980 | 212 ft | 98 kts | 57° |
| 2026-04-24 09:57 | -33.98631 | 25.61460 | 211 ft | 38 kts | 58° |
| 2026-04-24 09:57 | -33.98509 | 25.61696 | 213 ft | 29 kts | 58° |
| 2026-04-24 09:57 | -33.98406 | 25.61896 | 220 ft | 26 kts | 58° |
| 2026-04-24 09:57 | -33.98332 | 25.61962 | 217 ft | 11 kts | 328° |
| 2026-04-24 09:58 | -33.98272 | 25.61911 | 220 ft | 10 kts | 324° |
| 2026-04-24 09:58 | -33.98216 | 25.61858 | 215 ft | 10 kts | 303° |
| 2026-04-24 09:58 | -33.98243 | 25.61785 | 213 ft | 10 kts | 234° |
| 2026-04-24 09:58 | -33.98283 | 25.61718 | 213 ft | 10 kts | 234° |
| 2026-04-24 09:59 | -33.98318 | 25.61660 | 215 ft | 9 kts | 234° |
| 2026-04-24 09:59 | -33.98354 | 25.61589 | 215 ft | 10 kts | 239° |
| 2026-04-24 09:59 | -33.98388 | 25.61520 | 210 ft | 9 kts | 239° |
| 2026-04-24 09:59 | -33.98421 | 25.61453 | 215 ft | 9 kts | 239° |
| 2026-04-24 10:00 | -33.98444 | 25.61382 | 211 ft | 9 kts | 252° |
| 2026-04-24 10:00 | -33.98463 | 25.61336 | 213 ft | 5 kts | 239° |
| 2026-04-24 10:00 | -33.98458 | 25.61308 | 214 ft | 3 kts | 330° |
| 2026-04-24 10:00 | -33.98435 | 25.61303 | 215 ft | 3 kts | 346° |
| 2026-04-24 10:01 | -33.98419 | 25.61293 | 211 ft | 0 kts | 327° |